LiveATC.Net - Listen to live air traffic control over the Internet!


ICAO: EPWR  IATA: WRO   Airport: Strachowice Airport
City: Wroclaw
Country: Poland   Continent: Europe
EPWR METAR Weather: EPWR 222300Z 31016KT 7000 -DZ OVC004 11/11 Q1013
EPWR Flight Activity (FlightAware)

EPWR Tower
Feed Status: UP   Listeners: 0
Listen in your browser - HTML5 player (in browser, HTML5)
Click here to listen with your own player (launches your MP3 player)
EPWR Tower Audio Archives
FacilityFrequency
Wroclaw Tower120.250

EPWR Twr/App
Feed Status: UP   Listeners: 0
Listen in your browser - HTML5 player (in browser, HTML5)
Click here to listen with your own player (launches your MP3 player)
EPWR Twr/App Audio Archives
FacilityFrequency
Poznan Approach (South)127.225

NOTICE

Unauthorized use prohibited. See LiveATC.net Terms of Service


Find LiveATC Audio Streams


Airport/ARTCC Code

Frequency Search
(e.g., 124.400, 128.75)
Site-wide search
 


Browse LiveATC Feeds
Top 50 LiveATC Feeds
LiveATC Feed Map
Bad Weather Areas

LiveATC FAQ
Offer LiveATC feed
Contact LiveATC.net
Press Inquiries

LiveATC on iPhone
LiveATC on Android

Windows Phone
Windows 8/10

LiveATC Mobile
(Mobile browser)

ATC Audio Archives
Interesting Recordings

LiveATC Forums


Home Page
About LiveATC.net
Make a Donation
Terms of Use
Privacy Policy

Canadian Air Freqs

AIRMETs/SIGMETs

FAA Airport Status
Nat'l Airspace Status
Arrival Demand Charts


Server Software By:
Icecast.org
Liquidsoap